Latest Weather Observations for Truscott

IDD60801

Issued at 9:35 am CST Wednesday 26 November 2014 (issued every 30 minutes, with the page automatically refreshed every 10 minutes)

About weather observations | Map of weather stations | Latest weather observations for NT | Other Formats
Station Details ID: 001020 Name: TRUSCOTT Lat: -14.09 Lon: 126.39 Height: 51.0 m
Data from the previous 72 hours. | See also: Recent months at Truscott
Date/Time
CST
Temp
°C
App
Temp
°C
Dew
Point
Rel
Hum
%
Delta-T
°C
Wind Press
QNH
hPa
Press
MSL
hPa
Rain
since 9 am
mm
Dir
 
Spd
km/h
Gust
km/h
Spd
kts
Gust
kts
26/09:30am 30.1 30.9 21.7 60 5.7 SE 20 30 11 16 1008.8 - 0.0
26/09:00am 29.5 30.7 22.2 65 5.0 SE 19 32 10 17 1008.6 - 0.0
26/08:30am 29.3 30.7 22.5 67 4.6 ESE 19 26 10 14 1008.5 - 0.0
26/08:00am 28.1 30.9 23.0 74 3.5 ESE 13 22 7 12 1008.5 - 0.0
26/07:30am 27.6 31.7 23.2 77 3.0 SE 7 11 4 6 1008.1 1007.5 0.0
26/07:00am 27.0 30.8 22.8 78 2.9 SE 7 13 4 7 1008.0 - 0.0
26/06:30am 26.9 30.4 22.9 79 2.7 SE 9 13 5 7 1007.7 - 0.0
26/06:00am 27.0 30.1 22.8 78 2.9 ESE 11 17 6 9 1007.8 - 0.0
26/05:30am 27.0 31.7 24.3 85 1.9 ESE 7 11 4 6 1007.4 - 0.0
26/05:00am 26.8 30.9 24.6 88 1.5 ESE 11 17 6 9 1007.2 - 0.0
26/04:30am 26.6 30.9 24.3 87 1.6 E 9 13 5 7 1006.6 1006.0 0.0
26/04:00am 26.4 31.6 23.5 84 2.0 E 2 7 1 4 1005.9 - 0.0
26/03:30am 26.6 32.2 23.5 83 2.1 CALM 0 0 0 0 1005.6 - 0.0
26/03:00am 26.6 32.0 23.3 82 2.3 CALM 0 0 0 0 1005.4 - 0.0
26/02:30am 26.9 31.5 23.2 80 2.5 ENE 4 9 2 5 1005.6 - 0.0
26/02:00am 27.5 31.2 23.3 78 2.9 SW 9 11 5 6 1005.7 - 0.0
26/01:30am 27.3 30.9 23.1 78 2.9 SSW 9 11 5 6 1006.2 1005.6 0.0
26/01:00am 27.2 31.3 23.0 78 2.9 S 6 7 3 4 1006.6 - 0.0
26/12:30am 26.8 30.8 23.1 80 2.5 S 7 11 4 6 1007.0 - 0.0
26/12:00am 27.1 31.8 23.3 80 2.6 SSW 4 7 2 4 1007.1 - 0.0
 
Date/Time
CST
Temp
°C
App
Temp
°C
Dew
Point
Rel
Hum
%
Delta-T
°C
Wind Press
QNH
hPa
Press
MSL
hPa
Rain
since 9 am
mm
Dir
 
Spd
km/h
Gust
km/h
Spd
kts
Gust
kts
25/11:30pm 27.1 31.0 23.6 81 2.4 S 9 13 5 7 1007.5 - 0.0
25/11:00pm 27.8 32.3 23.6 78 2.9 S 6 9 3 5 1007.4 - 0.0
25/10:30pm 27.7 32.1 23.5 78 2.9 S 6 9 3 5 1007.1 1006.5 0.0
25/10:00pm 28.3 33.0 23.9 77 3.0 W 6 7 3 4 1006.7 - 0.0
25/09:30pm 28.0 32.3 23.6 77 3.0 N 7 9 4 5 1006.5 - 0.0
25/09:00pm 28.1 32.5 23.5 76 3.2 N 6 9 3 5 1006.6 - 0.0
25/08:30pm 28.1 32.4 23.7 77 3.0 E 7 11 4 6 1007.1 - 0.0
25/08:00pm 28.2 31.9 23.3 75 3.4 NE 9 13 5 7 1007.0 - 0.0
25/07:30pm 28.1 31.3 22.3 70 3.9 ESE 9 13 5 7 1006.9 1006.3 0.0
25/07:00pm 28.5 31.9 22.0 68 4.4 SE 7 13 4 7 1006.6 - 0.0
25/06:30pm 29.6 32.7 22.1 64 5.1 E 9 15 5 8 1006.7 - 0.0
25/06:00pm 29.2 31.4 21.9 64 4.9 SW 13 20 7 11 1006.2 - 0.0
25/05:30pm 29.2 31.8 22.7 68 4.4 NNE 13 20 7 11 1006.6 - 0.0
25/05:00pm 29.8 31.9 21.7 61 5.5 E 13 19 7 10 1006.8 - 0.0
25/04:30pm 29.7 31.7 21.6 61 5.5 N 13 20 7 11 1005.7 1005.1 0.0
25/04:16pm 29.3 29.7 20.7 59 5.7 NE 19 33 10 18 1005.7 - 0.0
25/04:00pm 28.8 28.0 20.0 59 5.8 E 24 39 13 21 1006.1 - 0.0
25/03:57pm 29.3 28.3 19.6 56 6.3 E 24 39 13 21 1006.3 - 0.0
25/03:47pm 30.7 29.7 18.8 49 7.7 E 22 33 12 18 1006.6 - 0.0
25/03:30pm 35.8 36.9 21.3 43 9.9 WNW 17 24 9 13 1005.4 - 0.0
25/03:00pm 35.3 36.7 22.6 47 8.8 WNW 19 28 10 15 1004.9 - 0.0
25/02:30pm 36.1 36.4 20.3 39 10.6 W 19 30 10 16 1005.3 - 0.0
25/02:00pm 35.8 36.7 20.9 42 10.1 W 17 24 9 13 1005.8 - 0.0
25/01:30pm 36.1 35.8 19.1 36 11.3 WNW 19 28 10 15 1006.3 1005.7 0.0
25/01:00pm 36.5 37.5 20.3 38 10.9 WNW 15 24 8 13 1007.1 - 0.0
25/12:30pm 35.8 37.9 22.4 46 9.2 WNW 15 20 8 11 1007.8 - 0.0
25/12:00pm 34.8 37.0 21.8 46 8.9 W 13 24 7 13 1008.3 - 0.0
25/11:30am 35.2 37.2 19.9 40 10.2 SW 9 20 5 11 1008.7 - 0.0
25/11:00am 34.7 35.5 20.6 43 9.5 SW 17 24 9 13 1009.1 - 0.0
25/10:30am 33.5 35.4 21.3 48 8.3 SW 13 20 7 11 1009.2 1008.6 0.0
25/10:00am 32.9 36.5 23.8 58 6.3 SW 11 17 6 9 1009.5 - 0.0
25/09:30am 31.3 34.7 24.7 68 4.6 SW 15 20 8 11 1009.4 - 0.0
25/09:00am 30.3 34.2 24.9 73 3.8 SW 13 20 7 11 1009.3 - 0.0
25/08:30am 30.1 34.6 25.2 75 3.5 WSW 11 17 6 9 1009.1 - 0.0
25/08:00am 30.0 35.4 26.0 79 2.8 W 9 13 5 7 1009.0 - 0.0
25/07:30am 28.7 34.4 25.9 85 2.0 W 7 9 4 5 1008.6 1008.0 0.0
25/07:00am 28.3 34.4 25.7 86 1.8 W 4 9 2 5 1008.2 - 0.0
25/06:46am 27.7 34.5 25.5 88 1.5 CALM 0 0 0 0 1008.0 - 0.0
25/06:36am 27.4 34.0 25.2 88 1.5 CALM 0 4 0 2 1007.9 - 0.0
25/06:30am 27.6 33.8 25.2 87 1.7 W 2 6 1 3 1007.9 - 0.0
25/06:00am 27.7 33.3 25.5 88 1.5 WNW 6 7 3 4 1007.6 - 0.0
25/05:30am 27.9 33.9 25.5 87 1.7 W 4 7 2 4 1007.5 - 0.0
25/05:00am 28.0 33.7 25.6 87 1.7 WNW 6 9 3 5 1007.4 - 0.0
25/04:30am 27.9 33.4 25.3 86 1.8 NW 6 7 3 4 1007.6 1007.0 0.0
25/04:00am 28.0 32.9 25.2 85 2.0 WNW 9 11 5 6 1007.6 - 0.0
25/03:30am 28.1 33.6 25.3 85 2.0 NNW 6 7 3 4 1007.6 - 0.0
25/03:00am 28.1 33.4 25.3 85 2.0 N 7 9 4 5 1007.6 - 0.0
25/02:30am 28.3 33.7 25.5 85 2.0 NNW 7 11 4 6 1007.8 - 0.0
25/02:00am 28.3 33.9 25.5 85 2.0 N 6 9 3 5 1008.2 - 0.0
25/01:30am 28.5 33.9 25.5 84 2.1 NNW 7 9 4 5 1008.7 1008.1 0.0
25/01:00am 28.9 34.3 25.5 82 2.4 NW 7 11 4 6 1008.9 - 0.0
25/12:30am 29.0 34.5 25.6 82 2.4 NW 7 13 4 7 1009.3 - 0.0
25/12:00am 28.9 34.1 25.7 83 2.3 NW 9 15 5 8 1009.5 - 0.0
 
Date/Time
CST
Temp
°C
App
Temp
°C
Dew
Point
Rel
Hum
%
Delta-T
°C
Wind Press
QNH
hPa
Press
MSL
hPa
Rain
since 9 am
mm
Dir
 
Spd
km/h
Gust
km/h
Spd
kts
Gust
kts
24/11:30pm 28.9 34.2 25.3 81 2.5 NW 7 11 4 6 1009.7 - 0.0
24/11:00pm 29.1 33.6 24.6 76 3.1 NNW 9 13 5 7 1009.7 - 0.0
24/10:30pm 29.3 33.8 24.6 76 3.3 N 9 13 5 7 1009.6 1009.0 0.0
24/10:00pm 29.5 34.1 24.8 76 3.3 NNW 9 15 5 8 1009.1 - 0.0
24/09:30pm 29.8 33.8 24.4 73 3.8 NNW 11 19 6 10 1008.8 - 0.0
24/09:00pm 29.9 34.3 24.5 73 3.8 NNW 9 15 5 8 1008.5 - 0.0
24/08:30pm 30.2 34.6 24.4 71 4.1 NNW 9 15 5 8 1008.2 - 0.0
24/08:00pm 30.6 33.8 23.0 64 5.2 NNW 11 17 6 9 1007.7 - 0.0
24/07:30pm 31.1 34.2 22.1 58 6.1 NNW 9 13 5 7 1007.4 1006.8 0.0
24/07:00pm 32.0 33.2 19.9 48 8.0 NNW 13 20 7 11 1006.6 - 0.0
24/06:30pm 33.3 32.8 15.8 35 11.0 NW 13 24 7 13 1006.5 - 0.0
24/06:00pm 33.8 32.7 15.3 33 11.5 NNW 15 22 8 12 1006.5 - 0.0
24/05:30pm 34.0 33.2 17.2 36 10.8 NNW 17 28 9 15 1006.3 - 0.0
24/05:00pm 34.8 34.9 19.2 39 10.3 NW 17 22 9 12 1006.2 - 0.0
24/04:30pm 34.3 34.6 20.3 44 9.4 NW 19 24 10 13 1006.3 1005.7 0.0
24/04:00pm 34.7 35.9 22.1 48 8.6 NW 19 26 10 14 1006.2 - 0.0
24/03:30pm 35.1 35.7 21.0 43 9.5 NNW 19 26 10 14 1006.6 - 0.0
24/03:00pm 35.6 36.2 20.3 40 10.3 NW 17 26 9 14 1006.9 - 0.0
24/02:30pm 36.1 36.2 19.1 36 11.3 WNW 17 26 9 14 1007.5 - 0.0
24/02:00pm 36.8 37.3 19.3 36 11.6 WNW 15 24 8 13 1007.9 - 0.0
24/01:30pm 35.7 35.4 18.3 35 11.4 W 17 26 9 14 1008.5 1007.9 0.0
24/01:00pm 35.6 35.9 18.7 37 11.1 NW 15 24 8 13 1008.9 - 0.0
24/12:30pm 34.7 34.4 18.3 38 10.7 W 17 24 9 13 1009.3 - 0.0
24/12:00pm 34.9 36.5 22.2 47 8.7 W 17 24 9 13 1009.6 - 0.0
24/11:30am 33.8 36.4 21.9 49 8.1 WSW 11 20 6 11 1010.0 - 0.0
24/11:00am 32.8 35.2 22.3 54 7.2 W 13 20 7 11 1010.5 - 0.0
24/10:30am 32.4 35.3 23.1 58 6.4 WNW 13 24 7 13 1010.6 1010.0 0.0
24/10:00am 31.9 35.1 23.7 62 5.7 W 13 20 7 11 1011.0 - 0.0
24/09:30am 31.6 35.2 23.7 63 5.5 WSW 11 17 6 9 1011.0 - 0.0
24/09:00am 30.7 34.7 24.4 69 4.4 SW 11 17 6 9 1011.1 - 0.0
24/08:30am 30.0 34.6 24.2 71 4.0 SW 7 11 4 6 1010.9 - 0.0
24/08:00am 29.3 33.9 24.2 74 3.5 SSW 7 9 4 5 1010.7 - 0.0
24/07:44am 28.6 33.1 23.7 75 3.4 SSW 6 7 3 4 1010.6 - 0.0
24/07:40am 28.4 33.0 23.8 76 3.2 SSW 6 7 3 4 1010.6 - 0.0
24/07:30am 28.0 32.6 23.8 78 2.9 SSW 6 7 3 4 1010.5 1009.9 0.0
24/07:12am 27.2 31.9 23.9 82 2.3 SSW 6 9 3 5 1010.3 - 0.0
24/07:08am 27.1 31.6 24.0 83 2.1 SSW 7 9 4 5 1010.3 - 0.0
24/07:00am 26.4 31.2 24.2 88 1.5 S 6 9 3 5 1010.2 - 0.0
24/06:50am 26.0 30.9 24.4 91 1.1 S 6 7 3 4 1010.1 - 0.0
24/06:43am 25.6 30.7 24.0 91 1.1 S 4 6 2 3 1009.9 - 0.0
24/06:30am 25.6 30.3 24.0 91 1.1 S 6 7 3 4 1009.8 - 0.0
24/06:28am 25.6 30.3 24.0 91 1.1 S 6 7 3 4 1009.7 - 0.0
24/06:16am 25.7 30.7 23.9 90 1.2 S 4 6 2 3 1009.6 - 0.0
24/06:00am 25.8 30.9 24.0 90 1.2 S 4 7 2 4 1009.4 - 0.0
24/05:30am 26.4 31.2 24.4 89 1.4 S 7 9 4 5 1009.4 - 0.0
24/05:00am 25.8 30.6 23.5 87 1.6 S 4 7 2 4 1009.3 - 0.0
24/04:30am 27.1 32.4 25.3 90 1.3 WSW 7 9 4 5 1009.0 1008.4 0.0
24/04:00am 26.0 31.4 23.3 85 1.8 CALM 0 0 0 0 1009.1 - 0.0
24/03:30am 26.5 31.8 23.0 81 2.4 CALM 0 0 0 0 1009.1 - 0.0
24/03:00am 26.9 31.0 23.2 80 2.5 NW 7 9 4 5 1009.1 - 0.0
24/02:30am 27.0 31.4 23.5 81 2.4 WNW 6 7 3 4 1009.2 - 0.0
24/02:00am 27.1 31.7 24.2 84 2.0 NW 7 9 4 5 1009.5 - 0.0
24/01:30am 27.3 31.9 24.2 83 2.1 WNW 7 9 4 5 1010.0 1009.4 0.0
24/01:00am 27.5 32.4 24.3 83 2.2 NW 6 7 3 4 1010.1 - 0.0
24/12:30am 28.1 33.2 24.7 82 2.4 WNW 6 9 3 5 1010.6 - 0.0
24/12:00am 28.2 33.2 24.8 82 2.4 W 7 11 4 6 1010.9 - 0.0
 
Date/Time
CST
Temp
°C
App
Temp
°C
Dew
Point
Rel
Hum
%
Delta-T
°C
Wind Press
QNH
hPa
Press
MSL
hPa
Rain
since 9 am
mm
Dir
 
Spd
km/h
Gust
km/h
Spd
kts
Gust
kts
23/11:30pm 28.2 33.0 24.4 80 2.6 WNW 7 9 4 5 1010.9 - 0.0
23/11:00pm 28.1 33.0 24.3 80 2.6 WNW 6 7 3 4 1011.1 - 0.0
23/10:30pm 28.6 33.6 24.8 80 2.7 WNW 7 9 4 5 1010.9 1010.3 0.0
23/10:00pm 28.7 33.9 25.1 81 2.5 NW 7 9 4 5 1010.7 - 0.0
23/09:30pm 28.7 33.8 24.9 80 2.7 NNW 7 9 4 5 1010.1 - 0.0
23/09:00pm 29.0 33.9 24.6 77 3.1 NW 7 11 4 6 1009.8 - 0.0
23/08:30pm 29.2 33.9 25.0 78 3.0 NW 9 11 5 6 1009.6 - 0.0
23/08:00pm 29.5 34.5 24.8 76 3.3 N 7 13 4 7 1009.0 - 0.0
23/07:30pm 29.8 34.2 24.4 73 3.8 NNW 9 15 5 8 1008.7 1008.1 0.0
23/07:00pm 30.1 33.7 24.3 71 4.0 N 13 17 7 9 1008.3 - 0.0
23/06:30pm 30.9 34.8 24.8 70 4.3 N 13 20 7 11 1007.8 - 0.0
23/06:00pm 32.0 35.0 23.3 60 6.0 N 13 17 7 9 1008.0 - 0.0
23/05:30pm 32.5 36.2 23.2 58 6.4 NNW 9 13 5 7 1007.6 - 0.0
23/05:00pm 32.3 34.5 23.3 59 6.2 N 17 24 9 13 1007.1 - 0.0
23/04:30pm 33.4 35.9 23.1 54 7.1 NNW 15 22 8 12 1007.4 1006.8 0.0
23/04:00pm 32.4 34.4 23.6 59 6.1 N 19 26 10 14 1007.0 - 0.0
23/03:30pm 33.7 36.6 25.1 60 6.1 N 19 28 10 15 1007.4 - 0.0
23/03:01pm 34.0 33.1 17.7 38 10.5 N 19 26 10 14 1007.6 - 0.0
23/03:00pm 33.9 33.7 18.4 40 10.1 N 17 26 9 14 1007.6 - 0.0
23/02:47pm 33.3 34.5 21.5 50 8.0 N 17 24 9 13 1007.8 - 0.0
23/02:30pm 34.2 35.5 22.3 50 8.2 NNW 19 28 10 15 1008.2 - 0.0
23/02:00pm 34.5 35.9 22.6 50 8.2 N 19 28 10 15 1008.7 - 0.0
23/01:30pm 33.8 36.0 22.6 52 7.7 N 15 24 8 13 1009.2 1008.6 0.0
23/01:00pm 34.0 35.9 22.7 51 7.8 N 17 26 9 14 1009.5 - 0.0
23/12:30pm 34.0 35.9 22.7 51 7.8 N 17 28 9 15 1009.8 - 0.0
23/12:00pm 33.7 36.6 23.1 54 7.3 NW 13 17 7 9 1009.9 - 0.0
23/11:30am 34.3 36.9 22.0 48 8.4 W 11 19 6 10 1010.0 - 0.0

Other Formats:

Comma delimited format used in spreadsheet applications
http://www.bom.gov.au/fwo/IDD60801/IDD60801.95101.axf

JavaScript Object Notation format (JSON) in row-major order
http://www.bom.gov.au/fwo/IDD60801/IDD60801.95101.json